Freedom, Maine
Current Conditions -  °F | °C
As of 3:55 PM on Saturday 25 Oct 2014 (Local Time) from KWVL Reporting Station
Clear Clear  
Wind Chill: 61°   Ceiling: Unl
Heat Index: 61°   Visibility: 10mi
Dew Point: 37°   Wind: 0mph
Humidity: 42%   Direction: NA
Pressure: 29.51"   Gusts: NA
Location:  44.53°N, 69.3°W
Report Text: KWVL 251955Z 00000KT 10SM CLR 16/03 A2951 RMK AO1
Loading
Personal Weather Stations






























Interactive Weather Map
Tropical Storm Tracking
New forecast layout! Learn more

10-Day Weather Forecast

Advertisements
Track Severe Weather on mobile